Time;durP1;ratioP1;P1;durP2;ratioP2;P2;SDS_P1;SDS_P2;PMS_P1;PMS_P2;Temp;Humidity;BMP_temperature;BMP_pressure;BME280_temperature;BME280_humidity;BME280_pressure;Samples;Min_cycle;Max_cycle;Signal;HPM_P1;HPM_P2
2022/06/18 00:00:16;739754.00;2.47;1276.25;85306.00;0.28;148.20;;;;;22.70;1.00;;;;;;2271996;61;1099;-85
2022/06/18 00:02:44;782292.00;2.61;1350.26;75698.00;0.25;131.61;;;;;21.90;1.00;;;;;;2272457;61;1475;-85
2022/06/18 00:05:13;760721.00;2.54;1312.70;76310.00;0.25;132.66;;;;;21.90;1.00;;;;;;2272407;61;1098;-85
2022/06/18 00:07:44;748904.00;2.50;1292.15;133951.00;0.45;232.14;;;;;22.10;1.00;;;;;;2272240;61;1292;-85
2022/06/18 00:10:16;513660.00;1.71;885.35;0.00;0.00;0.62;;;;;22.10;1.00;;;;;;2272186;61;2022;-86
2022/06/18 00:15:30;455448.00;1.52;785.15;13232.00;0.04;23.55;;;;;22.50;1.00;;;;;;2272634;61;774;-86
2022/06/18 00:17:58;349013.00;1.16;602.16;71822.00;0.24;124.91;;;;;22.40;1.00;;;;;;2272136;61;1458;-84
2022/06/18 00:20:29;179983.00;0.60;311.46;75873.00;0.25;131.91;;;;;21.90;1.00;;;;;;2271729;61;1124;-84
2022/06/18 00:22:59;206762.00;0.69;357.56;85332.00;0.28;148.25;;;;;21.70;1.00;;;;;;2272082;61;1144;-84
2022/06/18 00:25:32;120123592.00;400.41;70216712.00;69523.00;0.23;120.94;;;;;22.00;1.00;;;;;;2272335;61;1060;-84
2022/06/18 00:28:00;123852864.00;412.84;76968088.00;70455.00;0.23;122.55;;;;;22.10;1.00;;;;;;2272095;61;1497;-84
2022/06/18 00:30:30;728622.00;2.43;1256.91;69322.00;0.23;120.59;;;;;22.40;1.00;;;;;;2271965;61;1920;-85
2022/06/18 00:32:58;667735.00;2.23;1151.33;112610.00;0.38;195.33;;;;;22.50;1.00;;;;;;2272172;61;1163;-84
2022/06/18 00:35:25;791917.00;2.64;1367.03;94090.00;0.31;163.37;;;;;22.60;1.00;;;;;;2272091;61;1128;-84
2022/06/18 00:37:56;610141.00;2.03;1051.73;112087.00;0.37;194.43;;;;;22.60;1.00;;;;;;2272111;61;1402;-84
2022/06/18 00:40:27;926425.00;3.09;1602.58;114005.00;0.38;197.74;;;;;22.80;1.00;;;;;;2271502;61;1142;-84
2022/06/18 00:42:59;977156.00;3.26;1692.05;134849.00;0.45;233.69;;;;;22.90;1.00;;;;;;2272032;61;2257;-85
2022/06/18 00:45:29;497003.00;1.66;856.66;0.00;0.00;0.62;;;;;23.00;1.00;;;;;;2272213;61;1037;-85
2022/06/18 00:48:03;671105.00;2.24;1157.17;135123.00;0.45;234.16;;;;;22.80;1.00;;;;;;2272347;61;1323;-86
2022/06/18 00:50:35;730305.00;2.43;1259.83;121830.00;0.41;211.24;;;;;22.80;1.00;;;;;;2272268;61;1913;-85
2022/06/18 00:53:08;564147.00;1.88;972.35;68768.00;0.23;119.63;;;;;22.90;1.00;;;;;;2272141;61;1110;-86
2022/06/18 00:55:40;673487.00;2.24;1161.29;182796.00;0.61;316.30;;;;;23.10;1.00;;;;;;2272209;61;1184;-85
2022/06/18 00:58:13;403160.00;1.34;695.24;70412.00;0.23;122.47;;;;;23.30;1.00;;;;;;2272192;61;1470;-86
2022/06/18 01:00:42;367043.00;1.22;633.15;82859.00;0.28;143.98;;;;;23.10;1.00;;;;;;2272074;61;1114;-86
2022/06/18 01:03:24;190698.00;0.64;329.91;73188.00;0.24;127.27;;;;;23.10;1.00;;;;;;2272100;61;1029;-84
2022/06/18 01:05:53;543123.00;1.81;936.11;30455.00;0.10;53.37;;;;;22.80;1.00;;;;;;2272259;61;1077;-85
2022/06/18 01:08:23;475884.00;1.59;820.31;0.00;0.00;0.62;;;;;22.90;1.00;;;;;;2272228;61;1409;-85
2022/06/18 01:10:55;856266.00;2.85;1479.43;157678.00;0.53;273.04;;;;;22.50;1.00;;;;;;2272031;61;2088;-86
2022/06/18 01:13:27;663664.00;2.21;1144.28;0.00;0.00;0.62;;;;;22.40;1.00;;;;;;2272058;61;1172;-85
2022/06/18 01:15:56;828834.00;2.76;1431.46;66727.00;0.22;116.10;;;;;22.40;1.00;;;;;;2271800;61;1152;-85
2022/06/18 01:18:24;696499.00;2.32;1201.17;45731.00;0.15;79.80;;;;;22.50;1.00;;;;;;2271914;61;1293;-85
2022/06/18 01:20:57;855190.00;2.85;1477.55;120344.00;0.40;208.68;;;;;22.60;1.00;;;;;;2272107;61;1090;-84
2022/06/18 01:23:34;619734.00;2.07;1068.31;54228.00;0.18;94.50;;;;;22.60;1.00;;;;;;2271842;61;1152;-85
2022/06/18 01:26:03;654492.00;2.18;1128.41;6428.00;0.02;11.76;;;;;22.80;1.00;;;;;;2272011;61;1162;-85
2022/06/18 01:28:30;665352.00;2.22;1147.21;25360.00;0.08;44.55;;;;;22.90;1.00;;;;;;2272196;61;2225;-88
2022/06/18 01:30:57;526693.00;1.76;907.79;22992.00;0.08;40.45;;;;;23.00;1.00;;;;;;2271915;61;2004;-85
2022/06/18 01:33:25;420423.00;1.40;724.92;14046.00;0.05;24.96;;;;;23.00;1.00;;;;;;2271877;61;1126;-85
2022/06/18 01:35:55;611474.00;2.04;1054.04;40827.00;0.14;71.32;;;;;23.00;1.00;;;;;;2272108;61;1187;-85
2022/06/18 01:38:24;637541.00;2.13;1099.09;0.00;0.00;0.62;;;;;22.80;1.00;;;;;;2271783;61;1393;-85
2022/06/18 01:40:56;669687.00;2.23;1154.71;35709.00;0.12;62.46;;;;;22.80;1.00;;;;;;2271952;61;1327;-87
2022/06/18 01:43:27;693994.00;2.31;1196.82;87489.00;0.29;151.97;;;;;22.70;1.00;;;;;;2272032;61;1372;-85
2022/06/18 01:45:59;183691.00;0.61;317.85;67544.00;0.23;117.52;;;;;22.80;1.00;;;;;;2271764;61;1103;-84
2022/06/18 01:48:31;243010.00;0.81;419.93;74764.00;0.25;129.99;;;;;22.60;1.00;;;;;;2271350;61;1450;-84
2022/06/18 01:51:05;209523.00;0.70;362.31;75443.00;0.25;131.17;;;;;22.70;1.00;;;;;;2271645;61;1993;-84
2022/06/18 01:53:37;352803.00;1.18;608.68;67795.00;0.23;117.95;;;;;22.60;1.00;;;;;;2271530;61;1066;-84
2022/06/18 01:56:09;279975.00;0.93;483.49;69978.00;0.23;121.72;;;;;22.70;1.00;;;;;;2271739;61;1155;-84
2022/06/18 01:58:41;327435.00;1.09;565.08;68633.00;0.23;119.40;;;;;22.70;1.00;;;;;;2271364;61;1343;-85
2022/06/18 02:01:15;292935.00;0.98;505.77;66351.00;0.22;115.45;;;;;22.80;1.00;;;;;;2271744;61;1792;-85
2022/06/18 02:03:42;732203.00;2.44;1263.13;87489.00;0.29;151.97;;;;;22.60;1.00;;;;;;2271723;61;1115;-85
2022/06/18 02:06:10;230573.00;0.77;398.53;73043.00;0.24;127.02;;;;;22.50;1.00;;;;;;2271675;61;1667;-84
2022/06/18 02:08:37;273510.00;0.91;472.38;67537.00;0.23;117.50;;;;;22.70;1.00;;;;;;2271658;61;1379;-84
2022/06/18 02:11:07;167220.00;0.56;289.48;70288.00;0.23;122.26;;;;;22.80;1.00;;;;;;2271377;61;1993;-85
2022/06/18 02:13:39;166213.00;0.55;287.74;67033.00;0.22;116.63;;;;;22.60;1.00;;;;;;2271571;61;1021;-84
2022/06/18 02:16:11;161601.00;0.54;279.80;64912.00;0.22;112.97;;;;;22.50;1.00;;;;;;2271515;61;1166;-85
2022/06/18 02:18:39;213846.00;0.71;369.75;61057.00;0.20;106.30;;;;;22.30;1.00;;;;;;2271661;61;1413;-85
2022/06/18 02:21:10;163080.00;0.54;282.35;72414.00;0.24;125.93;;;;;21.90;1.00;;;;;;2271747;61;1063;-84
2022/06/18 02:23:37;177085.00;0.59;306.47;77070.00;0.26;133.98;;;;;21.40;1.00;;;;;;2272120;61;1120;-83
2022/06/18 02:26:06;158498.00;0.53;274.45;55354.00;0.18;96.44;;;;;21.30;1.00;;;;;;2271960;61;1091;-84
2022/06/18 02:28:39;168097.00;0.56;290.99;79458.00;0.26;138.10;;;;;20.70;1.00;;;;;;2272313;61;1337;-83
2022/06/18 02:31:07;279296.00;0.93;482.33;108771.00;0.36;188.71;;;;;20.30;1.00;;;;;;2272355;61;2006;-84
2022/06/18 02:33:40;179879.00;0.60;311.28;70915.00;0.24;123.34;;;;;20.00;1.00;;;;;;2272315;61;1092;-84
2022/06/18 02:36:14;317251.00;1.06;547.57;108376.00;0.36;188.03;;;;;19.70;1.00;;;;;;2272384;61;2071;-84
2022/06/18 02:38:42;169720.00;0.57;293.78;79708.00;0.27;138.53;;;;;19.70;1.00;;;;;;2272356;61;1153;-84
2022/06/18 02:41:09;242139.00;0.81;418.43;88394.00;0.29;153.53;;;;;19.80;1.00;;;;;;2272316;61;1098;-84
2022/06/18 02:43:39;165582.00;0.55;286.66;72103.00;0.24;125.39;;;;;20.20;1.00;;;;;;2272331;61;1313;-84
2022/06/18 02:46:06;196476.00;0.65;339.86;77558.00;0.26;134.82;;;;;20.50;1.00;;;;;;2272258;61;1277;-85
2022/06/18 02:48:36;159785.00;0.53;276.67;69239.00;0.23;120.45;;;;;20.90;1.00;;;;;;2272108;61;1411;-84
2022/06/18 02:51:04;168813.00;0.56;292.22;69760.00;0.23;121.35;;;;;20.80;1.00;;;;;;2272321;61;1923;-84
2022/06/18 02:53:32;168100.00;0.56;290.99;73947.00;0.25;128.58;;;;;20.80;1.00;;;;;;2272286;61;1165;-84
2022/06/18 02:56:02;169165.00;0.56;292.83;73135.00;0.24;127.18;;;;;20.70;1.00;;;;;;2272211;61;1127;-85
2022/06/18 02:58:32;245453.00;0.82;424.13;60811.00;0.20;105.88;;;;;20.60;1.00;;;;;;2272119;61;1333;-85
2022/06/18 03:01:03;174365.00;0.58;301.78;75193.00;0.25;130.73;;;;;20.60;1.00;;;;;;2272183;61;1087;-85
2022/06/18 03:03:33;197382.00;0.66;341.42;70939.00;0.24;123.38;;;;;21.00;1.00;;;;;;2272203;61;1144;-85
2022/06/18 03:05:59;186004.00;0.62;321.83;73157.00;0.24;127.22;;;;;21.50;1.00;;;;;;2271850;61;1290;-85
2022/06/18 03:08:29;186444.00;0.62;322.59;72844.00;0.24;126.67;;;;;21.70;1.00;;;;;;2271800;61;1415;-84
2022/06/18 03:13:40;398437.00;1.33;687.12;15659.00;0.05;27.75;;;;;22.10;1.00;;;;;;2271876;61;768;-84
2022/06/18 03:16:11;237396.00;0.79;410.27;70272.00;0.23;122.23;;;;;22.30;1.00;;;;;;2271913;61;1725;-84
2022/06/18 03:18:40;170638.00;0.57;295.37;74612.00;0.25;129.73;;;;;22.50;1.00;;;;;;2271662;61;1233;-84
2022/06/18 03:21:16;173801.00;0.58;300.81;70868.00;0.24;123.26;;;;;22.50;1.00;;;;;;2272170;61;1108;-85
2022/06/18 03:23:43;234292.00;0.78;404.93;76464.00;0.25;132.93;;;;;22.60;1.00;;;;;;2272017;61;1119;-85
2022/06/18 03:26:11;251507.00;0.84;434.54;62288.00;0.21;108.43;;;;;22.40;1.00;;;;;;2272593;61;1099;-86
2022/06/18 03:28:38;263353.00;0.88;454.91;76804.00;0.26;133.52;;;;;22.10;1.00;;;;;;2271788;61;1324;-85
2022/06/18 03:31:04;322635.00;1.08;556.83;137050.00;0.46;237.49;;;;;21.60;1.00;;;;;;2271917;61;2009;-85
2022/06/18 03:33:33;266619.00;0.89;460.53;76388.00;0.25;132.80;;;;;21.10;1.00;;;;;;2272409;61;1127;-85
2022/06/18 03:36:02;362931.00;1.21;626.09;113886.00;0.38;197.53;;;;;20.40;1.00;;;;;;2272404;61;1010;-84
2022/06/18 03:38:29;329847.00;1.10;569.22;64927.00;0.22;112.99;;;;;19.70;1.00;;;;;;2272642;61;1315;-85
2022/06/18 03:40:56;208022.00;0.69;359.73;68130.00;0.23;118.53;;;;;19.40;1.00;;;;;;2272694;61;1160;-85
2022/06/18 03:43:25;178953.00;0.60;309.69;69088.00;0.23;120.18;;;;;19.50;1.00;;;;;;2271819;61;1139;-84
2022/06/18 03:45:56;166636.00;0.56;288.47;73434.00;0.24;127.69;;;;;19.30;1.00;;;;;;2271931;61;1136;-84
2022/06/18 03:48:27;209056.00;0.70;361.51;74768.00;0.25;130.00;;;;;19.00;1.00;;;;;;2271902;61;1572;-84
2022/06/18 03:50:56;763589.00;2.55;1317.69;97960.00;0.33;170.05;;;;;18.90;1.00;;;;;;2271608;61;1919;-82
2022/06/18 03:53:23;788548.00;2.63;1361.16;100260.00;0.33;174.02;;;;;18.70;1.00;;;;;;2271659;61;1371;-84
2022/06/18 03:55:51;849185.00;2.83;1467.04;118564.00;0.40;205.61;;;;;18.80;1.00;;;;;;2271498;61;1160;-84
2022/06/18 03:58:19;517931.00;1.73;892.70;90954.00;0.30;157.95;;;;;18.80;1.00;;;;;;2271737;61;1399;-84
2022/06/18 04:00:46;382329.00;1.27;659.43;89112.00;0.30;154.77;;;;;18.70;1.00;;;;;;2271414;61;1146;-84
2022/06/18 04:03:13;180594.00;0.60;312.51;75143.00;0.25;130.65;;;;;18.80;1.00;;;;;;2271529;61;1155;-85
2022/06/18 04:05:42;170110.00;0.57;294.46;74946.00;0.25;130.31;;;;;18.80;1.00;;;;;;2271496;61;1084;-84
2022/06/18 04:08:12;277171.00;0.92;478.67;79810.00;0.27;138.71;;;;;18.70;1.00;;;;;;2271529;61;1292;-84
2022/06/18 04:10:39;388341.00;1.29;669.76;74118.00;0.25;128.88;;;;;18.60;1.00;;;;;;2271554;61;1923;-85
2022/06/18 04:13:06;229007.00;0.76;395.84;73194.00;0.24;127.28;;;;;18.80;1.00;;;;;;2271532;61;1219;-84
2022/06/18 04:15:34;689503.00;2.30;1189.04;169356.00;0.56;293.16;;;;;19.30;1.00;;;;;;2271572;61;1070;-85
2022/06/18 04:18:00;197003.00;0.66;340.76;72426.00;0.24;125.95;;;;;19.30;1.00;;;;;;2271499;61;1228;-84
2022/06/18 04:20:30;186397.00;0.62;322.51;73429.00;0.24;127.69;;;;;19.60;1.00;;;;;;2271559;61;1122;-83
2022/06/18 04:22:57;376457.00;1.25;649.34;110348.00;0.37;191.43;;;;;20.00;1.00;;;;;;2271392;61;1643;-83
2022/06/18 04:25:26;492411.00;1.64;848.76;111895.00;0.37;194.10;;;;;20.20;1.00;;;;;;2271122;61;1072;-84
2022/06/18 04:27:56;644015.00;2.15;1110.28;95513.00;0.32;165.83;;;;;20.50;1.00;;;;;;2271201;61;1247;-84
2022/06/18 04:30:25;121521072.00;405.07;72698304.00;131965.00;0.44;228.72;;;;;20.60;1.00;;;;;;2271471;61;1701;-85
2022/06/18 04:32:52;639035.00;2.13;1101.67;81067.00;0.27;140.88;;;;;20.30;1.00;;;;;;2271544;61;1930;-84
2022/06/18 04:35:19;737753.00;2.46;1272.77;77900.00;0.26;135.41;;;;;20.20;1.00;;;;;;2272123;61;1178;-86
2022/06/18 04:37:48;699835.00;2.33;1206.95;82455.00;0.27;143.28;;;;;20.20;1.00;;;;;;2272378;61;1320;-86
2022/06/18 04:40:19;696981.00;2.32;1202.00;112612.00;0.38;195.34;;;;;19.90;1.00;;;;;;2270946;61;1168;-84
2022/06/18 04:42:47;623495.00;2.08;1074.81;80993.00;0.27;140.75;;;;;20.00;1.00;;;;;;2271104;61;1109;-84
2022/06/18 04:45:14;491579.00;1.64;847.33;20776.00;0.07;36.61;;;;;19.80;1.00;;;;;;2270932;61;1062;-84
2022/06/18 04:47:42;838954.00;2.80;1449.15;98096.00;0.33;170.29;;;;;19.80;1.00;;;;;;2271035;61;1605;-83
2022/06/18 04:50:16;657932.00;2.19;1134.36;85337.00;0.28;148.26;;;;;19.80;1.00;;;;;;2271359;61;1103;-83
2022/06/18 04:52:43;787150.00;2.62;1358.72;78287.00;0.26;136.08;;;;;20.00;1.00;;;;;;2271535;61;1935;-83
2022/06/18 04:55:11;678358.00;2.26;1169.73;35176.00;0.12;61.54;;;;;20.20;1.00;;;;;;2271049;61;1134;-83
2022/06/18 04:57:38;605388.00;2.02;1043.52;7609.00;0.03;13.81;;;;;20.70;1.00;;;;;;2271073;61;1381;-83
2022/06/18 05:00:08;569763.00;1.90;982.04;0.00;0.00;0.62;;;;;20.90;1.00;;;;;;2271261;61;1123;-83
2022/06/18 05:02:36;781816.00;2.61;1349.43;46571.00;0.16;81.26;;;;;21.40;1.00;;;;;;2270765;61;1171;-84
2022/06/18 05:05:05;924693.00;3.08;1599.53;45889.00;0.15;80.08;;;;;21.60;1.00;;;;;;2271083;61;1011;-84
2022/06/18 05:07:32;970086.00;3.23;1679.56;49726.00;0.17;86.71;;;;;21.70;1.00;;;;;;2271160;61;1378;-84
2022/06/18 05:09:59;655100.00;2.18;1129.46;82702.00;0.28;143.70;;;;;21.90;1.00;;;;;;2271096;61;1081;-85
2022/06/18 05:12:26;575224.00;1.92;991.46;72950.00;0.24;126.86;;;;;22.10;1.00;;;;;;2270406;61;1922;-85
2022/06/18 05:14:53;543153.00;1.81;936.16;16845.00;0.06;29.81;;;;;22.20;1.00;;;;;;2270957;61;1160;-84
2022/06/18 05:17:24;606939.00;2.02;1046.20;48582.00;0.16;84.73;;;;;21.90;1.00;;;;;;2271250;61;1320;-85
2022/06/18 05:19:51;704108.00;2.35;1214.36;146634.00;0.49;254.01;;;;;21.60;1.00;;;;;;2271009;61;1194;-84
2022/06/18 05:22:18;1131565.00;3.77;1966.97;121099.00;0.40;209.98;;;;;21.90;1.00;;;;;;2271125;61;1191;-83
2022/06/18 05:24:45;818781.00;2.73;1413.90;138396.00;0.46;239.81;;;;;22.40;1.00;;;;;;2271189;61;1170;-84
2022/06/18 05:27:20;1018637.00;3.40;1765.51;198894.00;0.66;344.02;;;;;22.90;1.00;;;;;;2271259;61;1359;-85
2022/06/18 05:29:47;778912.00;2.60;1344.37;75648.00;0.25;131.52;;;;;23.00;1.00;;;;;;2270762;61;1215;-85
2022/06/18 05:32:14;921843.00;3.07;1594.52;23112.00;0.08;40.66;;;;;23.60;1.00;;;;;;2270227;61;1939;-85
2022/06/18 05:34:42;830721.00;2.77;1434.75;130043.00;0.43;225.40;;;;;24.30;1.00;;;;;;2270447;61;1058;-85
2022/06/18 05:37:13;735939.00;2.45;1269.62;50892.00;0.17;88.73;;;;;24.70;1.00;;;;;;2270348;61;1354;-84
2022/06/18 05:39:40;1065878.00;3.55;1849.51;118733.00;0.40;205.90;;;;;24.60;1.00;;;;;;2270445;61;1123;-85
2022/06/18 05:42:07;712832.00;2.38;1229.50;194325.00;0.65;336.15;;;;;25.20;1.00;;;;;;2270224;61;1118;-85
2022/06/18 05:44:35;723386.00;2.41;1247.82;44231.00;0.15;77.21;;;;;26.80;1.00;;;;;;2270403;61;1180;-84
2022/06/18 05:47:02;1006539.00;3.36;1744.06;133195.00;0.44;230.84;;;;;28.20;1.00;;;;;;2270751;61;1261;-86
2022/06/18 05:49:29;961784.00;3.21;1664.90;115803.00;0.39;200.84;;;;;29.30;1.00;;;;;;2271560;61;1134;-84
2022/06/18 05:51:57;1331920.00;4.44;2330.64;223799.00;0.75;386.88;;;;;29.90;1.00;;;;;;2270313;61;2020;-84
2022/06/18 05:54:24;847215.00;2.82;1463.59;184639.00;0.62;319.48;;;;;30.50;1.00;;;;;;2270561;61;1119;-85
2022/06/18 05:56:51;967196.00;3.22;1674.46;147527.00;0.49;255.55;;;;;30.90;1.00;;;;;;2269829;61;1373;-85
2022/06/18 05:59:18;951856.00;3.17;1647.38;196836.00;0.66;340.48;;;;;32.00;1.00;;;;;;2269812;61;1488;-84
2022/06/18 06:01:45;690915.00;2.30;1191.49;140126.00;0.47;242.79;;;;;32.00;1.00;;;;;;2269780;61;1105;-84
2022/06/18 06:04:12;410026.00;1.37;707.04;75655.00;0.25;131.53;;;;;32.30;1.00;;;;;;2269809;61;1096;-85
2022/06/18 06:06:38;229429.00;0.76;396.57;64823.00;0.22;112.81;;;;;32.60;1.00;;;;;;2269710;61;1277;-84
2022/06/18 06:09:07;402429.00;1.34;693.98;139176.00;0.46;241.15;;;;;33.60;1.00;;;;;;2270180;61;1211;-85
2022/06/18 06:11:32;526035.00;1.75;906.66;175695.00;0.59;304.08;;;;;34.40;1.00;;;;;;2269746;61;2014;-85
2022/06/18 06:14:01;44021.00;0.15;76.84;0.00;0.00;0.62;;;;;34.80;1.00;;;;;;2269681;61;1144;-85
2022/06/18 06:16:29;154593.00;0.52;267.72;52916.00;0.18;92.23;;;;;35.00;1.00;;;;;;2269710;61;1384;-85
2022/06/18 06:18:56;15078.00;0.05;26.75;0.00;0.00;0.62;;;;;35.70;1.00;;;;;;2269841;61;1136;-84
2022/06/18 06:21:23;334582.00;1.12;577.36;65763.00;0.22;114.44;;;;;36.00;1.00;;;;;;2269395;61;1258;-84
2022/06/18 06:23:50;30071.00;0.10;52.71;0.00;0.00;0.62;;;;;36.60;1.00;;;;;;2269270;61;1113;-84
2022/06/18 06:26:23;101615.00;0.34;176.36;0.00;0.00;0.62;;;;;36.90;1.00;;;;;;2268977;61;1345;-84
2022/06/18 06:28:49;49050.00;0.16;85.54;0.00;0.00;0.62;;;;;36.50;1.00;;;;;;2268941;61;1208;-84
2022/06/18 06:31:18;39799.00;0.13;69.54;0.00;0.00;0.62;;;;;36.70;1.00;;;;;;2269514;61;2000;-84
2022/06/18 06:33:45;30167.00;0.10;52.87;0.00;0.00;0.62;;;;;36.30;1.00;;;;;;2269455;61;1163;-84
2022/06/18 06:36:13;29352.00;0.10;51.46;0.00;0.00;0.62;;;;;36.80;1.00;;;;;;2269916;61;1062;-85
2022/06/18 06:38:40;62251.00;0.21;108.37;0.00;0.00;0.62;;;;;36.60;1.00;;;;;;2269215;61;2069;-85
2022/06/18 06:41:14;282068.00;0.94;487.09;115467.00;0.38;200.26;;;;;37.50;1.00;;;;;;2269827;61;1136;-83
2022/06/18 06:43:42;105743.00;0.35;183.48;0.00;0.00;0.62;;;;;38.10;1.00;;;;;;2269903;61;1104;-84
2022/06/18 06:46:12;71010.00;0.24;123.51;0.00;0.00;0.62;;;;;37.90;1.00;;;;;;2269877;61;1168;-84
2022/06/18 06:48:39;99325.00;0.33;172.41;0.00;0.00;0.62;;;;;37.60;1.00;;;;;;2269761;61;1527;-84
2022/06/18 06:51:11;51101.00;0.17;89.09;0.00;0.00;0.62;;;;;37.30;1.00;;;;;;2269616;61;1241;-84
2022/06/18 06:53:38;63068.00;0.21;109.78;0.00;0.00;0.62;;;;;37.40;1.00;;;;;;2269649;61;2125;-85
2022/06/18 06:58:51;58885.00;0.20;102.55;0.00;0.00;0.62;;;;;37.40;1.00;;;;;;2271369;61;703;-88
2022/06/18 07:01:18;378522.00;1.26;652.88;0.00;0.00;0.62;;;;;37.30;1.00;;;;;;2271941;61;1037;-87
2022/06/18 07:03:45;113323.00;0.38;196.56;0.00;0.00;0.62;;;;;38.00;1.00;;;;;;2271900;61;1095;-86
2022/06/18 07:06:13;113948.00;0.38;197.64;0.00;0.00;0.62;;;;;38.20;1.00;;;;;;2269292;61;1065;-85
2022/06/18 07:08:40;308388.00;1.03;532.34;0.00;0.00;0.62;;;;;38.80;1.00;;;;;;2269341;61;1261;-82
2022/06/18 07:11:07;0.00;0.00;0.62;0.00;0.00;0.62;;;;;38.40;1.00;;;;;;2270319;61;1172;-84
2022/06/18 07:13:34;70022.00;0.23;121.80;0.00;0.00;0.62;;;;;38.20;1.00;;;;;;2270419;61;2024;-85
2022/06/18 07:16:04;907324.00;3.02;1568.99;24203.00;0.08;42.55;;;;;39.40;1.00;;;;;;2270438;61;1084;-86
2022/06/18 07:18:35;975552.00;3.25;1689.22;149833.00;0.50;259.52;;;;;39.50;1.00;;;;;;2270437;61;1419;-86
2022/06/18 07:21:03;1379469.00;4.60;2418.30;139876.00;0.47;242.36;;;;;38.90;1.00;;;;;;2270701;61;1276;-86
2022/06/18 07:23:31;1219825.00;4.07;2126.10;31367.00;0.10;54.95;;;;;38.90;1.00;;;;;;2270302;61;1072;-84
2022/06/18 07:25:58;1178079.00;3.93;2050.64;154253.00;0.51;267.14;;;;;39.30;1.00;;;;;;2270438;61;1039;-84
2022/06/18 07:28:26;1279456.00;4.26;2234.56;118112.00;0.39;204.83;;;;;39.00;1.00;;;;;;2270491;61;1263;-85
2022/06/18 07:30:53;1644547.00;5.48;2918.18;193726.00;0.65;335.12;;;;;39.40;1.00;;;;;;2270395;61;1300;-84
2022/06/18 07:33:25;1187706.00;3.96;2068.01;110550.00;0.37;191.78;;;;;39.40;1.00;;;;;;2270631;61;1994;-85
2022/06/18 07:35:52;583387.00;1.94;1005.54;40122.00;0.13;70.10;;;;;39.30;1.00;;;;;;2270605;61;1620;-85
2022/06/18 07:38:18;251163.00;0.84;433.95;58039.00;0.19;101.09;;;;;40.00;1.00;;;;;;2270065;61;1371;-85
2022/06/18 07:40:49;271606.00;0.91;469.11;60385.00;0.20;105.14;;;;;39.10;1.00;;;;;;2270455;61;1081;-85
2022/06/18 07:43:20;193338.00;0.64;334.46;61423.00;0.20;106.94;;;;;39.40;1.00;;;;;;2271445;61;1077;-85
2022/06/18 07:45:47;113955.00;0.38;197.65;0.00;0.00;0.62;;;;;39.60;1.00;;;;;;2270332;61;1098;-85
2022/06/18 07:48:15;24450.00;0.08;42.98;0.00;0.00;0.62;;;;;39.70;1.00;;;;;;2271074;61;1396;-85
2022/06/18 07:50:46;56498.00;0.19;98.42;0.00;0.00;0.62;;;;;39.20;1.00;;;;;;2271340;61;1097;-85
2022/06/18 07:53:16;19665.00;0.07;34.69;0.00;0.00;0.62;;;;;39.00;1.00;;;;;;2270837;61;2026;-85
2022/06/18 07:55:43;24394.00;0.08;42.88;0.00;0.00;0.62;;;;;39.40;1.00;;;;;;2270389;61;1093;-85
2022/06/18 07:58:10;24226.00;0.08;42.59;0.00;0.00;0.62;;;;;39.40;1.00;;;;;;2271312;61;1356;-85
2022/06/18 08:00:40;105236.00;0.35;182.61;0.00;0.00;0.62;;;;;39.10;1.00;;;;;;2271404;61;1116;-85
2022/06/18 08:03:08;133693.00;0.45;231.70;43139.00;0.14;75.32;;;;;38.70;1.00;;;;;;2270984;61;1064;-85
2022/06/18 08:05:35;0.00;0.00;0.62;0.00;0.00;0.62;;;;;38.70;1.00;;;;;;2270888;61;1204;-86
2022/06/18 08:08:04;55075.00;0.18;95.96;0.00;0.00;0.62;;;;;38.40;1.00;;;;;;2270796;61;1756;-86
2022/06/18 08:10:32;134454.00;0.45;233.01;0.00;0.00;0.62;;;;;38.80;1.00;;;;;;2270636;61;1144;-86
2022/06/18 08:13:00;145234.00;0.48;251.59;0.00;0.00;0.62;;;;;40.20;1.00;;;;;;2270133;61;2170;-85
2022/06/18 08:15:27;43064.00;0.14;75.19;0.00;0.00;0.62;;;;;40.50;1.00;;;;;;2270676;61;1136;-86
2022/06/18 08:17:54;97925.00;0.33;169.99;0.00;0.00;0.62;;;;;40.20;1.00;;;;;;2270345;61;1368;-85
2022/06/18 08:20:21;837369.00;2.79;1446.37;14784.00;0.05;26.24;;;;;39.80;1.00;;;;;;2270759;61;1154;-85
2022/06/18 08:22:50;1284605.00;4.28;2243.96;157294.00;0.52;272.38;;;;;39.30;1.00;;;;;;2270331;61;1187;-86
2022/06/18 08:25:20;899247.00;3.00;1554.80;100261.00;0.33;174.02;;;;;40.10;1.00;;;;;;2271858;61;1175;-84
2022/06/18 08:27:48;1196993.00;3.99;2084.78;59055.00;0.20;102.84;;;;;40.60;1.00;;;;;;2271793;61;1652;-84
2022/06/18 08:30:16;870861.00;2.90;1505.00;35165.00;0.12;61.52;;;;;40.80;1.00;;;;;;2271226;61;1191;-86
2022/06/18 08:32:43;482962.00;1.61;832.50;53280.00;0.18;92.86;;;;;40.40;1.00;;;;;;2271358;61;1927;-85
2022/06/18 08:35:11;318576.00;1.06;549.85;50182.00;0.17;87.50;;;;;40.50;1.00;;;;;;2271367;61;1070;-85
2022/06/18 08:37:38;658729.00;2.20;1135.74;159587.00;0.53;276.33;;;;;40.20;1.00;;;;;;2271014;61;2331;-84
2022/06/18 08:40:34;151096.00;0.50;261.70;0.00;0.00;0.62;;;;;41.00;1.00;;;;;;2271393;61;1098;-84
2022/06/18 08:43:12;205179.00;0.68;354.84;0.00;0.00;0.62;;;;;41.20;1.00;;;;;;2271138;61;1200;-85
2022/06/18 08:45:45;322726.00;1.08;556.98;56442.00;0.19;98.33;;;;;41.20;1.00;;;;;;2271335;61;1832;-84
2022/06/18 08:48:43;177860.00;0.59;307.80;0.00;0.00;0.62;;;;;41.40;1.00;;;;;;2271444;61;1472;-85
2022/06/18 08:51:21;420853.00;1.40;725.66;0.00;0.00;0.62;;;;;40.70;1.00;;;;;;2271739;61;1565;-84
2022/06/18 08:54:10;728991.00;2.43;1257.55;10739.00;0.04;19.23;;;;;40.20;1.00;;;;;;2271805;61;2038;-88
2022/06/18 08:56:43;478792.00;1.60;825.32;44937.00;0.15;78.43;;;;;40.00;1.00;;;;;;2271994;61;1301;-86
2022/06/18 08:59:23;323678.00;1.08;558.62;46572.00;0.16;81.26;;;;;39.80;1.00;;;;;;2271953;61;1081;-85
2022/06/18 09:02:01;192998.00;0.64;333.87;0.00;0.00;0.62;;;;;39.30;1.00;;;;;;2272035;61;1601;-85
2022/06/18 09:04:40;410934.00;1.37;708.60;0.00;0.00;0.62;;;;;39.10;1.00;;;;;;2271360;61;1127;-85
2022/06/18 09:07:28;384121.00;1.28;662.51;0.00;0.00;0.62;;;;;39.80;1.00;;;;;;2271224;61;1487;-85
2022/06/18 09:10:07;163315.00;0.54;282.75;0.00;0.00;0.62;;;;;39.70;1.00;;;;;;2271480;61;1128;-86
2022/06/18 09:12:40;602558.00;2.01;1038.64;71263.00;0.24;123.94;;;;;39.60;1.00;;;;;;2270841;61;2176;-85
2022/06/18 09:15:15;1051480.00;3.50;1823.87;133355.00;0.44;231.11;;;;;40.30;1.00;;;;;;2271334;61;1039;-85
2022/06/18 09:17:46;836900.00;2.79;1445.56;58161.00;0.19;101.30;;;;;39.60;1.00;;;;;;2272117;61;1394;-86
2022/06/18 09:20:18;957043.00;3.19;1656.53;51984.00;0.17;90.62;;;;;39.00;1.00;;;;;;2271476;61;1128;-85
2022/06/18 09:22:49;1021688.00;3.41;1770.92;17151.00;0.06;30.34;;;;;38.80;1.00;;;;;;2270984;61;1461;-85
2022/06/18 09:25:23;985236.00;3.28;1706.34;147888.00;0.49;256.17;;;;;39.30;1.00;;;;;;2271362;61;1118;-85
2022/06/18 09:27:58;641910.00;2.14;1106.64;60337.00;0.20;105.06;;;;;39.50;1.00;;;;;;2271141;61;1321;-85
2022/06/18 09:30:34;275763.00;0.92;476.25;48346.00;0.16;84.33;;;;;39.00;1.00;;;;;;2271300;61;1065;-85
2022/06/18 09:33:07;432076.00;1.44;744.96;57607.00;0.19;100.34;;;;;38.60;1.00;;;;;;2271338;61;1915;-85
2022/06/18 09:35:41;212738.00;0.71;367.85;938.00;0.00;2.25;;;;;38.00;1.00;;;;;;2271428;61;1136;-84
2022/06/18 09:38:13;189354.00;0.63;327.60;0.00;0.00;0.62;;;;;38.00;1.00;;;;;;2271407;61;1369;-84
2022/06/18 09:40:46;379440.00;1.26;654.46;0.00;0.00;0.62;;;;;38.20;1.00;;;;;;2271438;61;2061;-85
2022/06/18 09:43:22;138164.00;0.46;239.41;0.00;0.00;0.62;;;;;38.20;1.00;;;;;;2271322;61;1213;-85
2022/06/18 09:45:54;74253.00;0.25;129.11;0.00;0.00;0.62;;;;;38.10;1.00;;;;;;2271588;61;1085;-83
2022/06/18 09:48:21;117023.00;0.39;202.95;0.00;0.00;0.62;;;;;37.90;1.00;;;;;;2271903;61;1365;-84